sensor_id;sensor_type;location;lat;lon;timestamp;temperature;humidity
42135;DHT22;28312;43.460;11.810;2023-08-06T00:01:18;16.90;70.90
42135;DHT22;28312;43.460;11.810;2023-08-06T00:05:24;16.80;70.90
42135;DHT22;28312;43.460;11.810;2023-08-06T00:09:27;16.80;70.90
42135;DHT22;28312;43.460;11.810;2023-08-06T00:13:31;16.70;71.00
42135;DHT22;28312;43.460;11.810;2023-08-06T00:17:34;16.70;71.10
42135;DHT22;28312;43.460;11.810;2023-08-06T00:21:38;16.60;71.40
42135;DHT22;28312;43.460;11.810;2023-08-06T00:25:42;16.50;71.50
42135;DHT22;28312;43.460;11.810;2023-08-06T00:29:45;16.40;71.60
42135;DHT22;28312;43.460;11.810;2023-08-06T00:33:49;16.40;71.60
42135;DHT22;28312;43.460;11.810;2023-08-06T00:37:52;16.40;71.60
42135;DHT22;28312;43.460;11.810;2023-08-06T00:41:55;16.40;71.60
42135;DHT22;28312;43.460;11.810;2023-08-06T00:45:59;16.40;71.80
42135;DHT22;28312;43.460;11.810;2023-08-06T00:50:03;16.40;72.00
42135;DHT22;28312;43.460;11.810;2023-08-06T00:54:08;16.30;72.30
42135;DHT22;28312;43.460;11.810;2023-08-06T00:58:13;16.30;72.40
42135;DHT22;28312;43.460;11.810;2023-08-06T01:02:17;16.40;72.40
42135;DHT22;28312;43.460;11.810;2023-08-06T01:15:19;16.20;72.40
42135;DHT22;28312;43.460;11.810;2023-08-06T01:19:24;16.20;72.20
42135;DHT22;28312;43.460;11.810;2023-08-06T01:23:27;16.20;72.20
42135;DHT22;28312;43.460;11.810;2023-08-06T01:27:58;16.20;72.20
42135;DHT22;28312;43.460;11.810;2023-08-06T01:32:05;16.20;72.20
42135;DHT22;28312;43.460;11.810;2023-08-06T01:36:12;16.20;72.00
42135;DHT22;28312;43.460;11.810;2023-08-06T01:40:16;16.10;72.10
42135;DHT22;28312;43.460;11.810;2023-08-06T01:44:20;15.90;72.20
42135;DHT22;28312;43.460;11.810;2023-08-06T01:48:23;15.90;72.40
42135;DHT22;28312;43.460;11.810;2023-08-06T01:52:27;15.80;72.40
42135;DHT22;28312;43.460;11.810;2023-08-06T01:56:30;15.80;72.40
42135;DHT22;28312;43.460;11.810;2023-08-06T02:00:34;15.70;72.30
42135;DHT22;28312;43.460;11.810;2023-08-06T02:04:37;15.70;72.30
42135;DHT22;28312;43.460;11.810;2023-08-06T02:08:41;15.60;72.40
42135;DHT22;28312;43.460;11.810;2023-08-06T02:12:44;15.50;72.50
42135;DHT22;28312;43.460;11.810;2023-08-06T02:16:48;15.40;72.50
42135;DHT22;28312;43.460;11.810;2023-08-06T02:20:56;15.30;72.60
42135;DHT22;28312;43.460;11.810;2023-08-06T02:25:00;15.30;72.60
42135;DHT22;28312;43.460;11.810;2023-08-06T02:29:04;15.20;72.70
42135;DHT22;28312;43.460;11.810;2023-08-06T02:33:07;15.20;72.90
42135;DHT22;28312;43.460;11.810;2023-08-06T02:37:12;15.20;72.90
42135;DHT22;28312;43.460;11.810;2023-08-06T02:41:15;15.10;72.90
42135;DHT22;28312;43.460;11.810;2023-08-06T02:45:18;15.00;73.00
42135;DHT22;28312;43.460;11.810;2023-08-06T02:49:22;14.90;73.10
42135;DHT22;28312;43.460;11.810;2023-08-06T02:53:26;14.90;72.90
42135;DHT22;28312;43.460;11.810;2023-08-06T02:57:30;14.80;73.00
42135;DHT22;28312;43.460;11.810;2023-08-06T03:01:34;14.80;73.10
42135;DHT22;28312;43.460;11.810;2023-08-06T03:05:52;14.70;73.10
42135;DHT22;28312;43.460;11.810;2023-08-06T03:10:08;14.70;73.00
42135;DHT22;28312;43.460;11.810;2023-08-06T03:14:12;14.70;73.00
42135;DHT22;28312;43.460;11.810;2023-08-06T03:18:17;14.60;73.10
42135;DHT22;28312;43.460;11.810;2023-08-06T03:22:20;14.60;73.20
42135;DHT22;28312;43.460;11.810;2023-08-06T03:26:25;14.50;73.20
42135;DHT22;28312;43.460;11.810;2023-08-06T03:30:28;14.50;73.20
42135;DHT22;28312;43.460;11.810;2023-08-06T03:34:33;14.40;73.30
42135;DHT22;28312;43.460;11.810;2023-08-06T03:38:37;14.20;73.50
42135;DHT22;28312;43.460;11.810;2023-08-06T03:42:44;14.20;73.60
42135;DHT22;28312;43.460;11.810;2023-08-06T03:46:47;14.20;73.60
42135;DHT22;28312;43.460;11.810;2023-08-06T03:50:51;14.20;73.60
42135;DHT22;28312;43.460;11.810;2023-08-06T03:54:56;14.20;73.60
42135;DHT22;28312;43.460;11.810;2023-08-06T03:59:00;14.00;73.70
42135;DHT22;28312;43.460;11.810;2023-08-06T04:03:04;14.00;73.80
42135;DHT22;28312;43.460;11.810;2023-08-06T04:07:07;14.00;73.70
42135;DHT22;28312;43.460;11.810;2023-08-06T04:11:11;14.00;73.70
42135;DHT22;28312;43.460;11.810;2023-08-06T04:15:17;13.90;73.80
42135;DHT22;28312;43.460;11.810;2023-08-06T04:19:22;13.90;73.90
42135;DHT22;28312;43.460;11.810;2023-08-06T04:23:26;14.00;73.80
42135;DHT22;28312;43.460;11.810;2023-08-06T04:27:33;14.00;73.80
42135;DHT22;28312;43.460;11.810;2023-08-06T04:31:38;13.90;73.90
42135;DHT22;28312;43.460;11.810;2023-08-06T04:35:41;13.90;74.00
42135;DHT22;28312;43.460;11.810;2023-08-06T04:39:45;13.90;74.20
42135;DHT22;28312;43.460;11.810;2023-08-06T04:43:49;13.90;74.30
42135;DHT22;28312;43.460;11.810;2023-08-06T04:47:52;14.00;74.40
42135;DHT22;28312;43.460;11.810;2023-08-06T04:51:56;14.10;74.50
42135;DHT22;28312;43.460;11.810;2023-08-06T04:55:59;14.20;74.60
42135;DHT22;28312;43.460;11.810;2023-08-06T05:00:06;14.20;74.60
42135;DHT22;28312;43.460;11.810;2023-08-06T05:04:10;14.30;74.70
42135;DHT22;28312;43.460;11.810;2023-08-06T05:08:15;14.40;74.80
42135;DHT22;28312;43.460;11.810;2023-08-06T05:12:21;14.60;75.00
42135;DHT22;28312;43.460;11.810;2023-08-06T05:16:25;14.70;75.10
42135;DHT22;28312;43.460;11.810;2023-08-06T05:20:36;14.90;75.30
42135;DHT22;28312;43.460;11.810;2023-08-06T05:24:40;15.20;75.40
42135;DHT22;28312;43.460;11.810;2023-08-06T05:28:44;15.40;75.40
42135;DHT22;28312;43.460;11.810;2023-08-06T05:32:49;15.60;75.30
42135;DHT22;28312;43.460;11.810;2023-08-06T05:36:55;15.80;75.20
42135;DHT22;28312;43.460;11.810;2023-08-06T05:40:58;15.90;75.10
42135;DHT22;28312;43.460;11.810;2023-08-06T05:45:02;16.10;75.10
42135;DHT22;28312;43.460;11.810;2023-08-06T05:49:05;16.30;75.40
42135;DHT22;28312;43.460;11.810;2023-08-06T05:53:09;16.50;75.50
42135;DHT22;28312;43.460;11.810;2023-08-06T05:57:12;16.70;75.50
42135;DHT22;28312;43.460;11.810;2023-08-06T06:01:16;16.90;75.70
42135;DHT22;28312;43.460;11.810;2023-08-06T06:05:19;17.20;75.60
42135;DHT22;28312;43.460;11.810;2023-08-06T06:09:23;17.50;75.30
42135;DHT22;28312;43.460;11.810;2023-08-06T06:13:26;17.80;75.30
42135;DHT22;28312;43.460;11.810;2023-08-06T06:17:31;18.00;75.10
42135;DHT22;28312;43.460;11.810;2023-08-06T06:21:35;18.20;74.90
42135;DHT22;28312;43.460;11.810;2023-08-06T06:25:42;18.50;74.90
42135;DHT22;28312;43.460;11.810;2023-08-06T06:29:50;18.70;74.80
42135;DHT22;28312;43.460;11.810;2023-08-06T06:33:55;18.90;74.50
42135;DHT22;28312;43.460;11.810;2023-08-06T06:37:59;19.00;74.30
42135;DHT22;28312;43.460;11.810;2023-08-06T06:42:03;19.10;74.10
42135;DHT22;28312;43.460;11.810;2023-08-06T06:46:12;19.10;74.00
42135;DHT22;28312;43.460;11.810;2023-08-06T06:50:19;19.20;74.10
42135;DHT22;28312;43.460;11.810;2023-08-06T06:54:22;19.40;74.10
42135;DHT22;28312;43.460;11.810;2023-08-06T06:58:26;19.50;73.90
42135;DHT22;28312;43.460;11.810;2023-08-06T07:02:29;19.60;73.80
42135;DHT22;28312;43.460;11.810;2023-08-06T07:06:32;19.70;73.70
42135;DHT22;28312;43.460;11.810;2023-08-06T07:10:36;19.80;74.00
42135;DHT22;28312;43.460;11.810;2023-08-06T07:14:40;20.00;73.90
42135;DHT22;28312;43.460;11.810;2023-08-06T07:18:43;20.20;73.70
42135;DHT22;28312;43.460;11.810;2023-08-06T07:22:47;20.40;73.70
42135;DHT22;28312;43.460;11.810;2023-08-06T07:26:50;20.60;73.30
42135;DHT22;28312;43.460;11.810;2023-08-06T07:30:56;20.70;73.20
42135;DHT22;28312;43.460;11.810;2023-08-06T07:35:00;20.80;73.00
42135;DHT22;28312;43.460;11.810;2023-08-06T07:39:05;21.00;73.00
42135;DHT22;28312;43.460;11.810;2023-08-06T07:43:09;21.10;72.90
42135;DHT22;28312;43.460;11.810;2023-08-06T07:47:13;21.30;72.80
42135;DHT22;28312;43.460;11.810;2023-08-06T07:51:17;21.60;72.60
42135;DHT22;28312;43.460;11.810;2023-08-06T07:55:20;21.70;71.90
42135;DHT22;28312;43.460;11.810;2023-08-06T07:59:23;21.90;72.00
42135;DHT22;28312;43.460;11.810;2023-08-06T08:03:27;22.10;71.50
42135;DHT22;28312;43.460;11.810;2023-08-06T08:07:30;22.10;71.10
42135;DHT22;28312;43.460;11.810;2023-08-06T08:11:34;22.20;71.10
42135;DHT22;28312;43.460;11.810;2023-08-06T08:15:37;22.40;71.10
42135;DHT22;28312;43.460;11.810;2023-08-06T08:19:41;22.60;71.30
42135;DHT22;28312;43.460;11.810;2023-08-06T08:23:44;22.80;71.00
42135;DHT22;28312;43.460;11.810;2023-08-06T08:27:48;23.10;70.80
42135;DHT22;28312;43.460;11.810;2023-08-06T08:31:51;23.30;70.20
42135;DHT22;28312;43.460;11.810;2023-08-06T08:35:55;23.50;70.20
42135;DHT22;28312;43.460;11.810;2023-08-06T08:39:59;23.70;70.30
42135;DHT22;28312;43.460;11.810;2023-08-06T08:44:07;24.00;70.10
42135;DHT22;28312;43.460;11.810;2023-08-06T08:48:12;24.20;70.00
42135;DHT22;28312;43.460;11.810;2023-08-06T08:52:18;24.50;69.70
42135;DHT22;28312;43.460;11.810;2023-08-06T08:56:22;24.80;69.80
42135;DHT22;28312;43.460;11.810;2023-08-06T09:00:26;25.20;69.50
42135;DHT22;28312;43.460;11.810;2023-08-06T09:04:30;25.50;69.50
42135;DHT22;28312;43.460;11.810;2023-08-06T09:08:47;25.70;68.70
42135;DHT22;28312;43.460;11.810;2023-08-06T09:12:55;25.80;68.30
42135;DHT22;28312;43.460;11.810;2023-08-06T09:17:00;25.80;68.60
42135;DHT22;28312;43.460;11.810;2023-08-06T09:21:13;25.90;68.60
42135;DHT22;28312;43.460;11.810;2023-08-06T09:25:23;26.00;68.70
42135;DHT22;28312;43.460;11.810;2023-08-06T09:29:31;26.20;68.60
42135;DHT22;28312;43.460;11.810;2023-08-06T09:33:36;26.30;68.30
42135;DHT22;28312;43.460;11.810;2023-08-06T09:37:41;26.50;68.30
42135;DHT22;28312;43.460;11.810;2023-08-06T09:41:45;26.70;68.40
42135;DHT22;28312;43.460;11.810;2023-08-06T09:45:51;26.90;67.80
42135;DHT22;28312;43.460;11.810;2023-08-06T09:49:56;26.90;67.50
42135;DHT22;28312;43.460;11.810;2023-08-06T09:54:01;26.90;67.50
42135;DHT22;28312;43.460;11.810;2023-08-06T09:58:23;27.00;67.40
42135;DHT22;28312;43.460;11.810;2023-08-06T10:02:27;27.10;67.30
42135;DHT22;28312;43.460;11.810;2023-08-06T10:06:35;27.20;66.80
42135;DHT22;28312;43.460;11.810;2023-08-06T10:10:39;27.20;66.30
42135;DHT22;28312;43.460;11.810;2023-08-06T10:14:43;27.30;67.00
42135;DHT22;28312;43.460;11.810;2023-08-06T10:18:47;27.50;67.40
42135;DHT22;28312;43.460;11.810;2023-08-06T10:23:02;27.70;66.80
42135;DHT22;28312;43.460;11.810;2023-08-06T10:27:06;27.80;66.10
42135;DHT22;28312;43.460;11.810;2023-08-06T10:31:10;27.60;66.10
42135;DHT22;28312;43.460;11.810;2023-08-06T10:39:36;27.80;65.70
42135;DHT22;28312;43.460;11.810;2023-08-06T10:44:06;27.60;65.00
42135;DHT22;28312;43.460;11.810;2023-08-06T10:48:34;27.30;65.10
42135;DHT22;28312;43.460;11.810;2023-08-06T10:52:37;27.20;65.50
42135;DHT22;28312;43.460;11.810;2023-08-06T10:56:41;27.10;65.60
42135;DHT22;28312;43.460;11.810;2023-08-06T11:00:46;27.20;65.80
42135;DHT22;28312;43.460;11.810;2023-08-06T11:04:49;27.40;65.90
42135;DHT22;28312;43.460;11.810;2023-08-06T11:08:54;27.60;66.00
42135;DHT22;28312;43.460;11.810;2023-08-06T11:13:02;27.80;65.60
42135;DHT22;28312;43.460;11.810;2023-08-06T11:17:05;28.00;65.40
42135;DHT22;28312;43.460;11.810;2023-08-06T11:21:10;28.10;65.80
42135;DHT22;28312;43.460;11.810;2023-08-06T11:25:15;28.30;65.20
42135;DHT22;28312;43.460;11.810;2023-08-06T11:29:18;28.40;65.00
42135;DHT22;28312;43.460;11.810;2023-08-06T11:33:26;28.40;64.60
42135;DHT22;28312;43.460;11.810;2023-08-06T11:37:33;28.30;65.00
42135;DHT22;28312;43.460;11.810;2023-08-06T11:41:38;28.50;65.40
42135;DHT22;28312;43.460;11.810;2023-08-06T11:45:43;28.70;65.40
42135;DHT22;28312;43.460;11.810;2023-08-06T11:49:50;29.10;65.00
42135;DHT22;28312;43.460;11.810;2023-08-06T11:53:57;29.20;64.30
42135;DHT22;28312;43.460;11.810;2023-08-06T11:58:04;29.20;63.60
42135;DHT22;28312;43.460;11.810;2023-08-06T12:02:09;28.90;62.80
42135;DHT22;28312;43.460;11.810;2023-08-06T12:06:16;28.60;63.20
42135;DHT22;28312;43.460;11.810;2023-08-06T12:10:20;28.60;63.40
42135;DHT22;28312;43.460;11.810;2023-08-06T12:14:24;28.70;63.40
42135;DHT22;28312;43.460;11.810;2023-08-06T12:18:27;28.90;63.60
42135;DHT22;28312;43.460;11.810;2023-08-06T12:22:31;29.20;63.40
42135;DHT22;28312;43.460;11.810;2023-08-06T12:26:38;29.40;63.10
42135;DHT22;28312;43.460;11.810;2023-08-06T12:30:41;29.70;62.50
42135;DHT22;28312;43.460;11.810;2023-08-06T12:34:47;29.80;62.20
42135;DHT22;28312;43.460;11.810;2023-08-06T12:38:55;30.00;62.10
42135;DHT22;28312;43.460;11.810;2023-08-06T12:42:59;30.10;61.90
42135;DHT22;28312;43.460;11.810;2023-08-06T12:47:02;30.30;60.80
42135;DHT22;28312;43.460;11.810;2023-08-06T12:51:06;29.90;60.60
42135;DHT22;28312;43.460;11.810;2023-08-06T12:55:09;29.80;61.00
42135;DHT22;28312;43.460;11.810;2023-08-06T12:59:16;29.70;60.50
42135;DHT22;28312;43.460;11.810;2023-08-06T13:03:19;29.60;60.60
42135;DHT22;28312;43.460;11.810;2023-08-06T13:07:23;29.50;60.60
42135;DHT22;28312;43.460;11.810;2023-08-06T13:11:26;29.60;61.00
42135;DHT22;28312;43.460;11.810;2023-08-06T13:15:30;29.90;61.30
42135;DHT22;28312;43.460;11.810;2023-08-06T13:19:33;30.20;60.60
42135;DHT22;28312;43.460;11.810;2023-08-06T13:23:37;30.40;59.90
42135;DHT22;28312;43.460;11.810;2023-08-06T13:27:40;30.60;59.30
42135;DHT22;28312;43.460;11.810;2023-08-06T13:31:43;30.60;58.60
42135;DHT22;28312;43.460;11.810;2023-08-06T13:35:47;30.90;58.70
42135;DHT22;28312;43.460;11.810;2023-08-06T13:39:50;30.90;57.90
42135;DHT22;28312;43.460;11.810;2023-08-06T13:43:56;30.60;57.70
42135;DHT22;28312;43.460;11.810;2023-08-06T13:48:00;30.40;57.70
42135;DHT22;28312;43.460;11.810;2023-08-06T13:52:03;30.10;57.70
42135;DHT22;28312;43.460;11.810;2023-08-06T13:56:24;29.80;57.80
42135;DHT22;28312;43.460;11.810;2023-08-06T14:00:27;29.60;57.70
42135;DHT22;28312;43.460;11.810;2023-08-06T14:04:30;29.40;57.60
42135;DHT22;28312;43.460;11.810;2023-08-06T14:08:34;29.20;57.70
42135;DHT22;28312;43.460;11.810;2023-08-06T14:12:37;29.10;57.60
42135;DHT22;28312;43.460;11.810;2023-08-06T14:16:40;29.40;58.40
42135;DHT22;28312;43.460;11.810;2023-08-06T14:20:44;29.90;58.00
42135;DHT22;28312;43.460;11.810;2023-08-06T14:24:48;30.20;57.00
42135;DHT22;28312;43.460;11.810;2023-08-06T14:28:51;30.40;56.40
42135;DHT22;28312;43.460;11.810;2023-08-06T14:32:57;30.40;56.40
42135;DHT22;28312;43.460;11.810;2023-08-06T14:37:18;30.60;56.00
42135;DHT22;28312;43.460;11.810;2023-08-06T14:41:22;30.60;55.70
42135;DHT22;28312;43.460;11.810;2023-08-06T14:45:25;30.60;55.30
42135;DHT22;28312;43.460;11.810;2023-08-06T14:49:29;30.60;55.00
42135;DHT22;28312;43.460;11.810;2023-08-06T14:53:32;30.50;54.60
42135;DHT22;28312;43.460;11.810;2023-08-06T14:57:35;30.40;54.70
42135;DHT22;28312;43.460;11.810;2023-08-06T15:01:39;30.40;54.60
42135;DHT22;28312;43.460;11.810;2023-08-06T15:05:49;30.20;54.20
42135;DHT22;28312;43.460;11.810;2023-08-06T15:09:53;30.10;54.10
42135;DHT22;28312;43.460;11.810;2023-08-06T15:14:18;30.00;53.80
42135;DHT22;28312;43.460;11.810;2023-08-06T15:18:22;29.90;54.10
42135;DHT22;28312;43.460;11.810;2023-08-06T15:22:26;30.00;53.80
42135;DHT22;28312;43.460;11.810;2023-08-06T15:26:29;30.00;53.20
42135;DHT22;28312;43.460;11.810;2023-08-06T15:30:33;29.80;53.10
42135;DHT22;28312;43.460;11.810;2023-08-06T15:34:36;29.80;53.00
42135;DHT22;28312;43.460;11.810;2023-08-06T15:38:40;29.70;53.00
42135;DHT22;28312;43.460;11.810;2023-08-06T15:42:43;29.80;52.90
42135;DHT22;28312;43.460;11.810;2023-08-06T15:46:47;29.60;52.60
42135;DHT22;28312;43.460;11.810;2023-08-06T15:50:50;29.50;52.40
42135;DHT22;28312;43.460;11.810;2023-08-06T15:54:54;29.40;52.10
42135;DHT22;28312;43.460;11.810;2023-08-06T15:58:57;29.20;52.20
42135;DHT22;28312;43.460;11.810;2023-08-06T16:03:01;29.00;51.90
42135;DHT22;28312;43.460;11.810;2023-08-06T16:07:05;28.80;52.00
42135;DHT22;28312;43.460;11.810;2023-08-06T16:11:08;28.60;51.90
42135;DHT22;28312;43.460;11.810;2023-08-06T16:15:12;28.50;52.30
42135;DHT22;28312;43.460;11.810;2023-08-06T16:19:18;28.40;51.90
42135;DHT22;28312;43.460;11.810;2023-08-06T16:23:25;28.30;51.80
42135;DHT22;28312;43.460;11.810;2023-08-06T16:27:28;28.10;52.00
42135;DHT22;28312;43.460;11.810;2023-08-06T16:31:32;28.10;52.10
42135;DHT22;28312;43.460;11.810;2023-08-06T16:35:35;27.90;52.20
42135;DHT22;28312;43.460;11.810;2023-08-06T16:39:39;27.80;51.90
42135;DHT22;28312;43.460;11.810;2023-08-06T16:43:42;27.60;51.50
42135;DHT22;28312;43.460;11.810;2023-08-06T16:47:45;27.20;51.50
42135;DHT22;28312;43.460;11.810;2023-08-06T16:51:49;27.00;51.90
42135;DHT22;28312;43.460;11.810;2023-08-06T16:55:53;26.80;52.00
42135;DHT22;28312;43.460;11.810;2023-08-06T16:59:56;26.60;51.90
42135;DHT22;28312;43.460;11.810;2023-08-06T17:04:00;26.50;52.30
42135;DHT22;28312;43.460;11.810;2023-08-06T17:08:03;26.40;52.40
42135;DHT22;28312;43.460;11.810;2023-08-06T17:12:07;26.30;52.60
42135;DHT22;28312;43.460;11.810;2023-08-06T17:16:11;26.10;52.80
42135;DHT22;28312;43.460;11.810;2023-08-06T17:20:15;26.00;52.80
42135;DHT22;28312;43.460;11.810;2023-08-06T17:24:19;25.80;53.10
42135;DHT22;28312;43.460;11.810;2023-08-06T17:28:22;25.70;53.30
42135;DHT22;28312;43.460;11.810;2023-08-06T17:32:26;25.60;53.50
42135;DHT22;28312;43.460;11.810;2023-08-06T17:36:29;25.50;53.60
42135;DHT22;28312;43.460;11.810;2023-08-06T17:40:32;25.30;53.70
42135;DHT22;28312;43.460;11.810;2023-08-06T17:44:39;25.20;53.90
42135;DHT22;28312;43.460;11.810;2023-08-06T17:48:43;25.10;54.10
42135;DHT22;28312;43.460;11.810;2023-08-06T17:52:46;24.90;54.10
42135;DHT22;28312;43.460;11.810;2023-08-06T17:56:51;24.90;54.30
42135;DHT22;28312;43.460;11.810;2023-08-06T18:00:54;24.70;54.20
42135;DHT22;28312;43.460;11.810;2023-08-06T18:04:58;24.60;54.40
42135;DHT22;28312;43.460;11.810;2023-08-06T18:09:03;24.50;54.40
42135;DHT22;28312;43.460;11.810;2023-08-06T18:13:06;24.30;54.50
42135;DHT22;28312;43.460;11.810;2023-08-06T18:17:10;24.10;54.70
42135;DHT22;28312;43.460;11.810;2023-08-06T18:21:13;24.00;54.70
42135;DHT22;28312;43.460;11.810;2023-08-06T18:25:16;23.90;54.70
42135;DHT22;28312;43.460;11.810;2023-08-06T18:29:20;23.70;54.80
42135;DHT22;28312;43.460;11.810;2023-08-06T18:33:23;23.60;54.90
42135;DHT22;28312;43.460;11.810;2023-08-06T18:37:27;23.60;54.90
42135;DHT22;28312;43.460;11.810;2023-08-06T18:41:31;23.50;55.00
42135;DHT22;28312;43.460;11.810;2023-08-06T18:45:34;23.40;55.00
42135;DHT22;28312;43.460;11.810;2023-08-06T18:49:42;23.30;55.20
42135;DHT22;28312;43.460;11.810;2023-08-06T18:53:45;23.20;55.30
42135;DHT22;28312;43.460;11.810;2023-08-06T18:57:49;23.10;55.30
42135;DHT22;28312;43.460;11.810;2023-08-06T19:01:52;23.10;55.30
42135;DHT22;28312;43.460;11.810;2023-08-06T19:05:59;23.10;55.40
42135;DHT22;28312;43.460;11.810;2023-08-06T19:10:06;23.00;55.40
42135;DHT22;28312;43.460;11.810;2023-08-06T19:14:10;22.90;55.50
42135;DHT22;28312;43.460;11.810;2023-08-06T19:18:13;22.90;55.60
42135;DHT22;28312;43.460;11.810;2023-08-06T19:22:17;22.80;55.60
42135;DHT22;28312;43.460;11.810;2023-08-06T19:26:21;22.70;55.60
42135;DHT22;28312;43.460;11.810;2023-08-06T19:30:24;22.60;55.80
42135;DHT22;28312;43.460;11.810;2023-08-06T19:34:27;22.40;56.00
42135;DHT22;28312;43.460;11.810;2023-08-06T19:38:31;22.20;56.10
42135;DHT22;28312;43.460;11.810;2023-08-06T19:42:35;22.00;56.40
42135;DHT22;28312;43.460;11.810;2023-08-06T19:46:39;21.80;56.70
42135;DHT22;28312;43.460;11.810;2023-08-06T19:50:51;21.70;56.80
42135;DHT22;28312;43.460;11.810;2023-08-06T19:54:55;21.70;56.90
42135;DHT22;28312;43.460;11.810;2023-08-06T19:58:58;21.70;56.80
42135;DHT22;28312;43.460;11.810;2023-08-06T20:03:02;21.70;56.80
42135;DHT22;28312;43.460;11.810;2023-08-06T20:07:05;21.60;56.80
42135;DHT22;28312;43.460;11.810;2023-08-06T20:11:09;21.40;57.00
42135;DHT22;28312;43.460;11.810;2023-08-06T20:15:13;21.20;57.30
42135;DHT22;28312;43.460;11.810;2023-08-06T20:19:17;21.00;57.50
42135;DHT22;28312;43.460;11.810;2023-08-06T20:23:20;20.90;57.80
42135;DHT22;28312;43.460;11.810;2023-08-06T20:27:25;20.90;57.80
42135;DHT22;28312;43.460;11.810;2023-08-06T20:31:29;20.90;57.80
42135;DHT22;28312;43.460;11.810;2023-08-06T20:35:32;20.80;57.90
42135;DHT22;28312;43.460;11.810;2023-08-06T20:39:36;20.80;58.00
42135;DHT22;28312;43.460;11.810;2023-08-06T20:43:40;20.80;58.00
42135;DHT22;28312;43.460;11.810;2023-08-06T20:47:43;20.70;58.10
42135;DHT22;28312;43.460;11.810;2023-08-06T20:51:48;20.70;58.10
42135;DHT22;28312;43.460;11.810;2023-08-06T20:56:02;20.60;58.20
42135;DHT22;28312;43.460;11.810;2023-08-06T21:00:07;20.40;58.40
42135;DHT22;28312;43.460;11.810;2023-08-06T21:04:10;20.30;58.30
42135;DHT22;28312;43.460;11.810;2023-08-06T21:08:14;20.10;58.50
42135;DHT22;28312;43.460;11.810;2023-08-06T21:12:17;19.90;58.70
42135;DHT22;28312;43.460;11.810;2023-08-06T21:16:21;19.80;58.70
42135;DHT22;28312;43.460;11.810;2023-08-06T21:20:24;19.60;59.00
42135;DHT22;28312;43.460;11.810;2023-08-06T21:24:28;19.50;59.20
42135;DHT22;28312;43.460;11.810;2023-08-06T21:28:33;19.30;59.50
42135;DHT22;28312;43.460;11.810;2023-08-06T21:32:37;19.10;59.70
42135;DHT22;28312;43.460;11.810;2023-08-06T21:36:40;18.90;59.80
42135;DHT22;28312;43.460;11.810;2023-08-06T21:40:44;18.80;60.20
42135;DHT22;28312;43.460;11.810;2023-08-06T21:44:48;18.80;60.40
42135;DHT22;28312;43.460;11.810;2023-08-06T21:48:51;18.80;60.70
42135;DHT22;28312;43.460;11.810;2023-08-06T21:52:55;18.90;60.70
42135;DHT22;28312;43.460;11.810;2023-08-06T21:56:59;19.00;60.90
42135;DHT22;28312;43.460;11.810;2023-08-06T22:01:04;19.10;60.90
42135;DHT22;28312;43.460;11.810;2023-08-06T22:05:09;19.20;60.80
42135;DHT22;28312;43.460;11.810;2023-08-06T22:09:12;19.30;60.70
42135;DHT22;28312;43.460;11.810;2023-08-06T22:13:16;19.20;60.70
42135;DHT22;28312;43.460;11.810;2023-08-06T22:17:20;19.20;60.80
42135;DHT22;28312;43.460;11.810;2023-08-06T22:21:23;19.20;60.80
42135;DHT22;28312;43.460;11.810;2023-08-06T22:25:47;19.20;60.80
42135;DHT22;28312;43.460;11.810;2023-08-06T22:29:50;19.20;60.90
42135;DHT22;28312;43.460;11.810;2023-08-06T22:33:54;19.20;61.10
42135;DHT22;28312;43.460;11.810;2023-08-06T22:37:58;19.20;61.10
42135;DHT22;28312;43.460;11.810;2023-08-06T22:42:01;19.10;61.00
42135;DHT22;28312;43.460;11.810;2023-08-06T22:46:05;19.10;61.20
42135;DHT22;28312;43.460;11.810;2023-08-06T22:50:09;19.00;61.20
42135;DHT22;28312;43.460;11.810;2023-08-06T22:54:13;18.90;61.30
42135;DHT22;28312;43.460;11.810;2023-08-06T22:58:17;18.90;61.30
42135;DHT22;28312;43.460;11.810;2023-08-06T23:02:20;18.70;61.40
42135;DHT22;28312;43.460;11.810;2023-08-06T23:06:25;18.60;61.50
42135;DHT22;28312;43.460;11.810;2023-08-06T23:10:28;18.50;61.70
42135;DHT22;28312;43.460;11.810;2023-08-06T23:14:34;18.40;61.70
42135;DHT22;28312;43.460;11.810;2023-08-06T23:18:37;18.20;61.90
42135;DHT22;28312;43.460;11.810;2023-08-06T23:22:41;18.10;62.00
42135;DHT22;28312;43.460;11.810;2023-08-06T23:26:44;17.90;62.10
42135;DHT22;28312;43.460;11.810;2023-08-06T23:30:48;17.90;62.30
42135;DHT22;28312;43.460;11.810;2023-08-06T23:34:55;17.80;62.30
42135;DHT22;28312;43.460;11.810;2023-08-06T23:38:59;17.70;62.40
42135;DHT22;28312;43.460;11.810;2023-08-06T23:43:02;17.60;62.50
42135;DHT22;28312;43.460;11.810;2023-08-06T23:47:06;17.50;62.60
42135;DHT22;28312;43.460;11.810;2023-08-06T23:51:09;17.40;62.80
42135;DHT22;28312;43.460;11.810;2023-08-06T23:55:14;17.30;62.80
42135;DHT22;28312;43.460;11.810;2023-08-06T23:59:18;17.20;62.80
